Terminal Aerodrome Forecast
Issued by NWS

Home | Current Version | Previous Version | Text Only | Print | Product List | Glossary On
Versions: 1 2 3 4 5 6 7 8 9 10 11 12 13 14 15 16 17 18 19 20 21 22 23 24 25 26 27 28 29 30 31 32
000
FTPQ31 PGUM 020800 AAA
TAFPQ
TAF AMD

PGRO 020812Z 0208/0306 26007KT P6SM VCSH SCT020 SCT040 BKN120
      TEMPO 0208/0212 VRB12G20KT 3SM +SHRA SCT015 BKN025 OVC070=

USA.gov is the U.S. government's official web portal to all federal, state and local government web resources and services.